Portada
METAR-TAF:

METAR-TAF

Aeroports :

Ambon, Indonèsia

latitud: 03-42S, longitud: 128-05E, altitud: 12 m

Observació

L'informe es va fer fa 33 minuts, a les 03:00 UTC
Vent 7 kt del Sud, variant entre Sud-Est i Sud/Sud-Oest
Temperatura 32°C
Humitat 63%
Pressió 1009 hPa
Visibilitat 10 km o més
Núvols disperses a una alçada de 1800 ft

METAR: WAPP 270300Z 17007KT 140V200 9999 SCT018 32/24 Q1009 NOSIG

Hora: 12:33 (03:33 UTC)

Pronòstic

L'informe es va fer fa 4 hores i 33 minuts, a les 23:00 UTC
Pronòstic vàlid del 27 a les 00 UTC al 27 a les 24 UTC
Vent 6 kt del Sud/Sud-Est
Visibilitat 10 km o més
Núvols disperses a una alçada de 1800 ft
Evolucionant progressivament
l' 27 a les 10 UTC al 27 a les 12 UTC
Vent 6 kt del Nord

TAF: WAPP 262300Z 2700/2724 16006KT 9999 SCT018 BECMG 2710/2712 35006KT

Observacions i pronòstics meteorològics de més de 4000 aeroports (METAR i TAF).

Les estacions disponibles són els punts grocs i vermells al mapa.

Posi el ratolí al punt desitjat per veure el nom de l'estació.

Feu clic per veure les observacions i els pronòstics meteorològics.

Per canviar el mapa: feu clic els botons verds amb una creu de color negre per apropar; al botó verd amb un guió per allunyar la imatge; o en les fletxes verdes per a mapes adjacents.


METAR-TAF: